sensor_id;sensor_type;location;lat;lon;timestamp;P1;durP1;ratioP1;P2;durP2;ratioP2
18695;SDS011;22617;43.690;27.956;2023-03-21T00:03:05;41.00;;;16.40;;
18695;SDS011;22617;43.690;27.956;2023-03-21T00:08:11;43.17;;;15.30;;
18695;SDS011;22617;43.690;27.956;2023-03-21T00:13:15;35.23;;;14.80;;
18695;SDS011;22617;43.690;27.956;2023-03-21T00:18:20;38.50;;;14.53;;
18695;SDS011;22617;43.690;27.956;2023-03-21T00:23:25;38.00;;;15.40;;
18695;SDS011;22617;43.690;27.956;2023-03-21T00:28:29;36.00;;;14.57;;
18695;SDS011;22617;43.690;27.956;2023-03-21T00:33:33;35.67;;;14.23;;
18695;SDS011;22617;43.690;27.956;2023-03-21T00:38:39;37.33;;;14.23;;
18695;SDS011;22617;43.690;27.956;2023-03-21T00:43:43;36.67;;;14.60;;
18695;SDS011;22617;43.690;27.956;2023-03-21T00:48:47;37.23;;;14.27;;
18695;SDS011;22617;43.690;27.956;2023-03-21T00:53:52;37.00;;;13.40;;
18695;SDS011;22617;43.690;27.956;2023-03-21T00:59:00;34.17;;;13.70;;
18695;SDS011;22617;43.690;27.956;2023-03-21T01:04:04;34.67;;;13.63;;
18695;SDS011;22617;43.690;27.956;2023-03-21T01:09:14;39.20;;;14.70;;
18695;SDS011;22617;43.690;27.956;2023-03-21T01:14:21;35.67;;;13.97;;
18695;SDS011;22617;43.690;27.956;2023-03-21T01:19:27;39.93;;;15.13;;
18695;SDS011;22617;43.690;27.956;2023-03-21T01:24:52;42.80;;;13.70;;
18695;SDS011;22617;43.690;27.956;2023-03-21T01:30:10;44.50;;;13.33;;
18695;SDS011;22617;43.690;27.956;2023-03-21T01:35:23;46.97;;;11.87;;
18695;SDS011;22617;43.690;27.956;2023-03-21T01:40:30;42.70;;;13.00;;
18695;SDS011;22617;43.690;27.956;2023-03-21T01:46:06;34.07;;;13.43;;
18695;SDS011;22617;43.690;27.956;2023-03-21T01:51:49;41.13;;;12.53;;
18695;SDS011;22617;43.690;27.956;2023-03-21T01:57:04;51.70;;;13.07;;
18695;SDS011;22617;43.690;27.956;2023-03-21T02:02:14;31.53;;;12.27;;
18695;SDS011;22617;43.690;27.956;2023-03-21T02:07:56;51.77;;;14.83;;
18695;SDS011;22617;43.690;27.956;2023-03-21T02:13:03;52.67;;;14.37;;
18695;SDS011;22617;43.690;27.956;2023-03-21T02:18:14;40.80;;;12.87;;
18695;SDS011;22617;43.690;27.956;2023-03-21T02:29:01;49.70;;;13.90;;
18695;SDS011;22617;43.690;27.956;2023-03-21T02:34:16;44.57;;;13.67;;
18695;SDS011;22617;43.690;27.956;2023-03-21T02:39:43;47.17;;;14.17;;
18695;SDS011;22617;43.690;27.956;2023-03-21T02:44:58;46.40;;;14.63;;
18695;SDS011;22617;43.690;27.956;2023-03-21T02:50:09;42.67;;;14.63;;
18695;SDS011;22617;43.690;27.956;2023-03-21T02:55:21;36.50;;;13.23;;
18695;SDS011;22617;43.690;27.956;2023-03-21T03:00:32;45.80;;;14.13;;
18695;SDS011;22617;43.690;27.956;2023-03-21T03:05:40;39.10;;;14.70;;
18695;SDS011;22617;43.690;27.956;2023-03-21T03:10:52;40.83;;;15.17;;
18695;SDS011;22617;43.690;27.956;2023-03-21T03:16:10;41.90;;;15.13;;
18695;SDS011;22617;43.690;27.956;2023-03-21T03:21:24;41.83;;;14.67;;
18695;SDS011;22617;43.690;27.956;2023-03-21T03:26:35;34.83;;;15.27;;
18695;SDS011;22617;43.690;27.956;2023-03-21T03:31:46;34.33;;;14.87;;
18695;SDS011;22617;43.690;27.956;2023-03-21T03:36:54;46.73;;;15.30;;
18695;SDS011;22617;43.690;27.956;2023-03-21T03:42:02;93.63;;;16.17;;
18695;SDS011;22617;43.690;27.956;2023-03-21T03:47:35;36.43;;;14.70;;
18695;SDS011;22617;43.690;27.956;2023-03-21T03:53:01;57.63;;;14.50;;
18695;SDS011;22617;43.690;27.956;2023-03-21T03:58:21;39.87;;;14.40;;
18695;SDS011;22617;43.690;27.956;2023-03-21T04:03:45;40.13;;;14.63;;
18695;SDS011;22617;43.690;27.956;2023-03-21T04:08:59;45.83;;;14.70;;
18695;SDS011;22617;43.690;27.956;2023-03-21T04:14:21;41.97;;;14.30;;
18695;SDS011;22617;43.690;27.956;2023-03-21T04:19:29;42.10;;;15.00;;
18695;SDS011;22617;43.690;27.956;2023-03-21T04:24:33;39.00;;;14.40;;
18695;SDS011;22617;43.690;27.956;2023-03-21T04:29:39;42.77;;;15.27;;
18695;SDS011;22617;43.690;27.956;2023-03-21T04:35:19;32.83;;;14.17;;
18695;SDS011;22617;43.690;27.956;2023-03-21T04:40:23;35.10;;;13.83;;
18695;SDS011;22617;43.690;27.956;2023-03-21T04:45:30;38.97;;;13.57;;
18695;SDS011;22617;43.690;27.956;2023-03-21T04:50:34;29.47;;;13.73;;
18695;SDS011;22617;43.690;27.956;2023-03-21T04:55:38;27.07;;;12.70;;
18695;SDS011;22617;43.690;27.956;2023-03-21T05:00:44;29.60;;;11.93;;
18695;SDS011;22617;43.690;27.956;2023-03-21T05:05:47;33.90;;;14.03;;
18695;SDS011;22617;43.690;27.956;2023-03-21T05:10:52;28.20;;;13.03;;
18695;SDS011;22617;43.690;27.956;2023-03-21T05:16:01;31.43;;;12.47;;
18695;SDS011;22617;43.690;27.956;2023-03-21T05:21:05;30.57;;;13.57;;
18695;SDS011;22617;43.690;27.956;2023-03-21T05:26:13;27.83;;;12.37;;
18695;SDS011;22617;43.690;27.956;2023-03-21T05:31:27;28.27;;;12.67;;
18695;SDS011;22617;43.690;27.956;2023-03-21T05:36:39;33.70;;;12.93;;
18695;SDS011;22617;43.690;27.956;2023-03-21T05:41:45;31.30;;;12.83;;
18695;SDS011;22617;43.690;27.956;2023-03-21T05:46:50;28.80;;;11.83;;
18695;SDS011;22617;43.690;27.956;2023-03-21T05:51:59;34.17;;;13.33;;
18695;SDS011;22617;43.690;27.956;2023-03-21T05:57:04;26.90;;;13.20;;
18695;SDS011;22617;43.690;27.956;2023-03-21T06:02:25;26.20;;;12.43;;
18695;SDS011;22617;43.690;27.956;2023-03-21T06:07:33;32.83;;;13.40;;
18695;SDS011;22617;43.690;27.956;2023-03-21T06:12:38;29.40;;;12.70;;
18695;SDS011;22617;43.690;27.956;2023-03-21T06:18:17;28.33;;;13.17;;
18695;SDS011;22617;43.690;27.956;2023-03-21T06:23:30;30.33;;;13.33;;
18695;SDS011;22617;43.690;27.956;2023-03-21T06:28:34;25.73;;;11.93;;
18695;SDS011;22617;43.690;27.956;2023-03-21T06:33:40;26.80;;;12.73;;
18695;SDS011;22617;43.690;27.956;2023-03-21T06:38:43;28.60;;;12.30;;
18695;SDS011;22617;43.690;27.956;2023-03-21T06:43:48;27.03;;;12.07;;
18695;SDS011;22617;43.690;27.956;2023-03-21T06:48:56;29.90;;;12.77;;
18695;SDS011;22617;43.690;27.956;2023-03-21T06:54:03;43.27;;;17.40;;
18695;SDS011;22617;43.690;27.956;2023-03-21T06:59:14;26.87;;;11.93;;
18695;SDS011;22617;43.690;27.956;2023-03-21T07:04:29;28.10;;;11.87;;
18695;SDS011;22617;43.690;27.956;2023-03-21T07:09:33;21.17;;;11.43;;
18695;SDS011;22617;43.690;27.956;2023-03-21T07:14:38;26.80;;;11.00;;
18695;SDS011;22617;43.690;27.956;2023-03-21T07:19:43;22.47;;;11.67;;
18695;SDS011;22617;43.690;27.956;2023-03-21T07:24:47;27.80;;;12.53;;
18695;SDS011;22617;43.690;27.956;2023-03-21T07:30:07;32.30;;;12.80;;
18695;SDS011;22617;43.690;27.956;2023-03-21T07:35:14;22.87;;;10.70;;
18695;SDS011;22617;43.690;27.956;2023-03-21T07:40:19;26.40;;;11.07;;
18695;SDS011;22617;43.690;27.956;2023-03-21T07:45:23;24.90;;;10.83;;
18695;SDS011;22617;43.690;27.956;2023-03-21T07:50:29;26.13;;;11.47;;
18695;SDS011;22617;43.690;27.956;2023-03-21T07:55:33;26.40;;;12.13;;
18695;SDS011;22617;43.690;27.956;2023-03-21T08:00:37;23.87;;;11.20;;
18695;SDS011;22617;43.690;27.956;2023-03-21T08:05:42;23.80;;;12.40;;
18695;SDS011;22617;43.690;27.956;2023-03-21T08:10:46;25.63;;;12.57;;
18695;SDS011;22617;43.690;27.956;2023-03-21T08:15:49;26.33;;;11.97;;
18695;SDS011;22617;43.690;27.956;2023-03-21T08:20:55;22.97;;;11.50;;
18695;SDS011;22617;43.690;27.956;2023-03-21T08:25:59;24.80;;;12.77;;
18695;SDS011;22617;43.690;27.956;2023-03-21T08:31:05;27.73;;;12.03;;
18695;SDS011;22617;43.690;27.956;2023-03-21T08:36:11;29.03;;;13.07;;
18695;SDS011;22617;43.690;27.956;2023-03-21T08:41:15;23.70;;;12.70;;
18695;SDS011;22617;43.690;27.956;2023-03-21T08:46:19;24.13;;;12.60;;
18695;SDS011;22617;43.690;27.956;2023-03-21T08:51:24;23.70;;;12.00;;
18695;SDS011;22617;43.690;27.956;2023-03-21T08:56:28;31.47;;;13.10;;
18695;SDS011;22617;43.690;27.956;2023-03-21T09:01:33;25.90;;;13.57;;
18695;SDS011;22617;43.690;27.956;2023-03-21T09:06:39;24.53;;;11.43;;
18695;SDS011;22617;43.690;27.956;2023-03-21T09:11:48;24.70;;;12.23;;
18695;SDS011;22617;43.690;27.956;2023-03-21T09:16:53;32.77;;;13.33;;
18695;SDS011;22617;43.690;27.956;2023-03-21T09:21:58;26.87;;;11.67;;
18695;SDS011;22617;43.690;27.956;2023-03-21T09:27:02;24.87;;;12.30;;
18695;SDS011;22617;43.690;27.956;2023-03-21T09:32:05;25.30;;;11.50;;
18695;SDS011;22617;43.690;27.956;2023-03-21T09:37:10;25.47;;;11.60;;
18695;SDS011;22617;43.690;27.956;2023-03-21T09:42:19;25.73;;;11.83;;
18695;SDS011;22617;43.690;27.956;2023-03-21T09:47:34;24.23;;;11.20;;
18695;SDS011;22617;43.690;27.956;2023-03-21T09:52:52;26.23;;;11.40;;
18695;SDS011;22617;43.690;27.956;2023-03-21T09:58:00;22.57;;;11.33;;
18695;SDS011;22617;43.690;27.956;2023-03-21T10:03:11;26.10;;;12.20;;
18695;SDS011;22617;43.690;27.956;2023-03-21T10:08:21;27.50;;;12.60;;
18695;SDS011;22617;43.690;27.956;2023-03-21T10:13:30;31.07;;;13.30;;
18695;SDS011;22617;43.690;27.956;2023-03-21T10:18:35;25.10;;;12.53;;
18695;SDS011;22617;43.690;27.956;2023-03-21T10:23:43;22.37;;;12.23;;
18695;SDS011;22617;43.690;27.956;2023-03-21T10:28:46;25.03;;;12.07;;
18695;SDS011;22617;43.690;27.956;2023-03-21T10:33:54;21.43;;;11.60;;
18695;SDS011;22617;43.690;27.956;2023-03-21T10:39:03;20.47;;;11.80;;
18695;SDS011;22617;43.690;27.956;2023-03-21T10:44:13;22.80;;;12.67;;
18695;SDS011;22617;43.690;27.956;2023-03-21T10:49:19;19.13;;;11.17;;
18695;SDS011;22617;43.690;27.956;2023-03-21T10:54:27;21.30;;;11.50;;
18695;SDS011;22617;43.690;27.956;2023-03-21T10:59:34;23.20;;;12.40;;
18695;SDS011;22617;43.690;27.956;2023-03-21T11:04:41;25.87;;;13.03;;
18695;SDS011;22617;43.690;27.956;2023-03-21T11:09:49;28.93;;;14.37;;
18695;SDS011;22617;43.690;27.956;2023-03-21T11:14:56;29.97;;;14.87;;
18695;SDS011;22617;43.690;27.956;2023-03-21T11:20:16;30.13;;;13.87;;
18695;SDS011;22617;43.690;27.956;2023-03-21T11:25:24;26.17;;;12.90;;
18695;SDS011;22617;43.690;27.956;2023-03-21T11:30:35;23.53;;;11.83;;
18695;SDS011;22617;43.690;27.956;2023-03-21T11:35:38;23.97;;;13.17;;
18695;SDS011;22617;43.690;27.956;2023-03-21T11:40:51;21.23;;;12.57;;
18695;SDS011;22617;43.690;27.956;2023-03-21T11:45:55;25.17;;;12.97;;
18695;SDS011;22617;43.690;27.956;2023-03-21T11:51:01;24.33;;;12.87;;
18695;SDS011;22617;43.690;27.956;2023-03-21T11:56:18;24.47;;;12.50;;
18695;SDS011;22617;43.690;27.956;2023-03-21T12:01:29;22.97;;;11.50;;
18695;SDS011;22617;43.690;27.956;2023-03-21T12:06:38;22.40;;;12.13;;
18695;SDS011;22617;43.690;27.956;2023-03-21T12:11:51;23.27;;;11.60;;
18695;SDS011;22617;43.690;27.956;2023-03-21T12:17:05;23.60;;;11.63;;
18695;SDS011;22617;43.690;27.956;2023-03-21T12:22:18;22.17;;;11.97;;
18695;SDS011;22617;43.690;27.956;2023-03-21T12:27:34;27.10;;;12.17;;
18695;SDS011;22617;43.690;27.956;2023-03-21T12:32:50;21.70;;;11.27;;
18695;SDS011;22617;43.690;27.956;2023-03-21T12:38:04;20.03;;;10.80;;
18695;SDS011;22617;43.690;27.956;2023-03-21T12:43:21;22.10;;;10.70;;
18695;SDS011;22617;43.690;27.956;2023-03-21T12:48:37;21.33;;;11.10;;
18695;SDS011;22617;43.690;27.956;2023-03-21T12:53:47;23.17;;;10.43;;
18695;SDS011;22617;43.690;27.956;2023-03-21T12:58:58;17.60;;;10.03;;
18695;SDS011;22617;43.690;27.956;2023-03-21T13:09:44;19.80;;;10.13;;
18695;SDS011;22617;43.690;27.956;2023-03-21T13:14:54;18.80;;;10.30;;
18695;SDS011;22617;43.690;27.956;2023-03-21T13:20:13;21.60;;;10.30;;
18695;SDS011;22617;43.690;27.956;2023-03-21T13:25:24;23.57;;;10.33;;
18695;SDS011;22617;43.690;27.956;2023-03-21T13:30:30;23.30;;;11.30;;
18695;SDS011;22617;43.690;27.956;2023-03-21T13:35:35;23.87;;;10.70;;
18695;SDS011;22617;43.690;27.956;2023-03-21T13:40:43;25.47;;;11.73;;
18695;SDS011;22617;43.690;27.956;2023-03-21T13:45:51;27.10;;;12.13;;
18695;SDS011;22617;43.690;27.956;2023-03-21T13:50:59;27.90;;;12.13;;
18695;SDS011;22617;43.690;27.956;2023-03-21T14:01:37;34.00;;;15.80;;
18695;SDS011;22617;43.690;27.956;2023-03-21T14:06:43;41.93;;;17.43;;
18695;SDS011;22617;43.690;27.956;2023-03-21T14:11:52;30.33;;;14.37;;
18695;SDS011;22617;43.690;27.956;2023-03-21T14:17:13;34.10;;;14.83;;
18695;SDS011;22617;43.690;27.956;2023-03-21T14:22:17;31.87;;;14.47;;
18695;SDS011;22617;43.690;27.956;2023-03-21T14:27:22;37.47;;;14.60;;
18695;SDS011;22617;43.690;27.956;2023-03-21T14:32:31;38.23;;;16.67;;
18695;SDS011;22617;43.690;27.956;2023-03-21T14:37:46;37.97;;;16.73;;
18695;SDS011;22617;43.690;27.956;2023-03-21T14:42:54;40.23;;;17.07;;
18695;SDS011;22617;43.690;27.956;2023-03-21T14:48:09;33.93;;;16.23;;
18695;SDS011;22617;43.690;27.956;2023-03-21T14:53:29;34.63;;;15.70;;
18695;SDS011;22617;43.690;27.956;2023-03-21T14:58:36;31.87;;;15.90;;
18695;SDS011;22617;43.690;27.956;2023-03-21T15:03:53;38.87;;;16.77;;
18695;SDS011;22617;43.690;27.956;2023-03-21T15:09:02;37.27;;;17.17;;
18695;SDS011;22617;43.690;27.956;2023-03-21T15:14:11;36.77;;;17.37;;
18695;SDS011;22617;43.690;27.956;2023-03-21T15:19:35;34.97;;;16.67;;
18695;SDS011;22617;43.690;27.956;2023-03-21T15:24:45;39.97;;;19.67;;
18695;SDS011;22617;43.690;27.956;2023-03-21T15:29:53;37.33;;;17.80;;
18695;SDS011;22617;43.690;27.956;2023-03-21T15:40:39;35.33;;;17.53;;
18695;SDS011;22617;43.690;27.956;2023-03-21T15:45:45;37.17;;;18.03;;
18695;SDS011;22617;43.690;27.956;2023-03-21T15:51:01;33.40;;;16.17;;
18695;SDS011;22617;43.690;27.956;2023-03-21T15:56:13;35.97;;;17.27;;
18695;SDS011;22617;43.690;27.956;2023-03-21T16:01:19;37.07;;;16.73;;
18695;SDS011;22617;43.690;27.956;2023-03-21T16:12:35;35.03;;;17.37;;
18695;SDS011;22617;43.690;27.956;2023-03-21T16:17:53;34.67;;;16.23;;
18695;SDS011;22617;43.690;27.956;2023-03-21T16:23:07;35.60;;;16.80;;
18695;SDS011;22617;43.690;27.956;2023-03-21T16:28:18;36.07;;;16.73;;
18695;SDS011;22617;43.690;27.956;2023-03-21T16:33:22;40.07;;;18.57;;
18695;SDS011;22617;43.690;27.956;2023-03-21T16:38:31;38.63;;;17.03;;
18695;SDS011;22617;43.690;27.956;2023-03-21T16:43:35;39.13;;;16.83;;
18695;SDS011;22617;43.690;27.956;2023-03-21T16:48:47;34.00;;;15.83;;
18695;SDS011;22617;43.690;27.956;2023-03-21T16:53:59;33.27;;;16.37;;
18695;SDS011;22617;43.690;27.956;2023-03-21T16:59:19;37.43;;;16.93;;
18695;SDS011;22617;43.690;27.956;2023-03-21T17:04:25;32.83;;;15.30;;
18695;SDS011;22617;43.690;27.956;2023-03-21T17:09:57;34.53;;;16.87;;
18695;SDS011;22617;43.690;27.956;2023-03-21T17:15:00;36.43;;;16.93;;
18695;SDS011;22617;43.690;27.956;2023-03-21T17:20:14;38.83;;;18.47;;
18695;SDS011;22617;43.690;27.956;2023-03-21T17:25:23;38.30;;;18.07;;
18695;SDS011;22617;43.690;27.956;2023-03-21T17:30:27;35.27;;;16.80;;
18695;SDS011;22617;43.690;27.956;2023-03-21T17:35:32;39.10;;;16.50;;
18695;SDS011;22617;43.690;27.956;2023-03-21T17:40:38;40.87;;;17.67;;
18695;SDS011;22617;43.690;27.956;2023-03-21T17:45:42;40.27;;;18.63;;
18695;SDS011;22617;43.690;27.956;2023-03-21T17:50:45;43.07;;;19.90;;
18695;SDS011;22617;43.690;27.956;2023-03-21T17:55:50;48.00;;;21.33;;
18695;SDS011;22617;43.690;27.956;2023-03-21T18:00:54;47.33;;;21.10;;
18695;SDS011;22617;43.690;27.956;2023-03-21T18:05:58;47.97;;;22.13;;
18695;SDS011;22617;43.690;27.956;2023-03-21T18:11:03;52.10;;;23.67;;
18695;SDS011;22617;43.690;27.956;2023-03-21T18:16:09;48.30;;;21.07;;
18695;SDS011;22617;43.690;27.956;2023-03-21T18:21:15;47.67;;;22.93;;
18695;SDS011;22617;43.690;27.956;2023-03-21T18:26:22;43.60;;;20.30;;
18695;SDS011;22617;43.690;27.956;2023-03-21T18:31:26;37.23;;;18.43;;
18695;SDS011;22617;43.690;27.956;2023-03-21T18:36:30;41.30;;;18.27;;
18695;SDS011;22617;43.690;27.956;2023-03-21T18:41:36;37.83;;;18.87;;
18695;SDS011;22617;43.690;27.956;2023-03-21T18:46:42;38.07;;;18.00;;
18695;SDS011;22617;43.690;27.956;2023-03-21T18:51:48;40.23;;;19.73;;
18695;SDS011;22617;43.690;27.956;2023-03-21T18:56:53;46.50;;;21.00;;
18695;SDS011;22617;43.690;27.956;2023-03-21T19:02:18;48.23;;;21.83;;
18695;SDS011;22617;43.690;27.956;2023-03-21T19:07:24;51.00;;;22.30;;
18695;SDS011;22617;43.690;27.956;2023-03-21T19:12:29;49.43;;;21.87;;
18695;SDS011;22617;43.690;27.956;2023-03-21T19:17:32;46.33;;;21.30;;
18695;SDS011;22617;43.690;27.956;2023-03-21T19:22:56;46.73;;;22.97;;
18695;SDS011;22617;43.690;27.956;2023-03-21T19:28:01;52.43;;;24.87;;
18695;SDS011;22617;43.690;27.956;2023-03-21T19:33:05;50.07;;;24.03;;
18695;SDS011;22617;43.690;27.956;2023-03-21T19:38:09;48.50;;;23.37;;
18695;SDS011;22617;43.690;27.956;2023-03-21T19:43:14;38.67;;;19.00;;
18695;SDS011;22617;43.690;27.956;2023-03-21T19:48:33;39.77;;;18.47;;
18695;SDS011;22617;43.690;27.956;2023-03-21T19:53:39;41.13;;;18.03;;
18695;SDS011;22617;43.690;27.956;2023-03-21T19:58:43;38.03;;;17.10;;
18695;SDS011;22617;43.690;27.956;2023-03-21T20:03:48;34.53;;;16.43;;
18695;SDS011;22617;43.690;27.956;2023-03-21T20:08:52;33.93;;;15.13;;
18695;SDS011;22617;43.690;27.956;2023-03-21T20:14:17;32.67;;;15.23;;
18695;SDS011;22617;43.690;27.956;2023-03-21T20:19:21;35.73;;;15.93;;
18695;SDS011;22617;43.690;27.956;2023-03-21T20:24:24;34.57;;;15.60;;
18695;SDS011;22617;43.690;27.956;2023-03-21T20:29:30;36.60;;;14.90;;
18695;SDS011;22617;43.690;27.956;2023-03-21T20:34:55;36.93;;;14.70;;
18695;SDS011;22617;43.690;27.956;2023-03-21T20:40:17;31.57;;;13.63;;
18695;SDS011;22617;43.690;27.956;2023-03-21T20:45:23;29.43;;;13.23;;
18695;SDS011;22617;43.690;27.956;2023-03-21T20:50:28;28.77;;;12.70;;
18695;SDS011;22617;43.690;27.956;2023-03-21T20:55:33;27.80;;;12.20;;
18695;SDS011;22617;43.690;27.956;2023-03-21T21:00:40;28.53;;;12.37;;
18695;SDS011;22617;43.690;27.956;2023-03-21T21:05:45;32.50;;;12.80;;
18695;SDS011;22617;43.690;27.956;2023-03-21T21:10:48;34.20;;;13.27;;
18695;SDS011;22617;43.690;27.956;2023-03-21T21:16:13;30.03;;;12.80;;
18695;SDS011;22617;43.690;27.956;2023-03-21T21:21:17;28.63;;;13.43;;
18695;SDS011;22617;43.690;27.956;2023-03-21T21:26:21;30.00;;;12.97;;
18695;SDS011;22617;43.690;27.956;2023-03-21T21:31:26;34.53;;;13.77;;
18695;SDS011;22617;43.690;27.956;2023-03-21T21:36:30;29.97;;;12.97;;
18695;SDS011;22617;43.690;27.956;2023-03-21T21:41:34;34.40;;;13.10;;
18695;SDS011;22617;43.690;27.956;2023-03-21T21:46:39;26.63;;;12.10;;
18695;SDS011;22617;43.690;27.956;2023-03-21T21:51:43;27.50;;;12.87;;
18695;SDS011;22617;43.690;27.956;2023-03-21T21:56:48;29.60;;;12.23;;
18695;SDS011;22617;43.690;27.956;2023-03-21T22:01:56;35.53;;;14.43;;
18695;SDS011;22617;43.690;27.956;2023-03-21T22:06:59;31.57;;;13.90;;
18695;SDS011;22617;43.690;27.956;2023-03-21T22:12:07;29.30;;;12.97;;
18695;SDS011;22617;43.690;27.956;2023-03-21T22:17:12;31.77;;;13.60;;
18695;SDS011;22617;43.690;27.956;2023-03-21T22:22:15;31.00;;;13.23;;
18695;SDS011;22617;43.690;27.956;2023-03-21T22:27:19;26.60;;;13.33;;
18695;SDS011;22617;43.690;27.956;2023-03-21T22:32:23;35.00;;;13.80;;
18695;SDS011;22617;43.690;27.956;2023-03-21T22:37:27;30.00;;;12.80;;
18695;SDS011;22617;43.690;27.956;2023-03-21T22:42:32;31.97;;;13.37;;
18695;SDS011;22617;43.690;27.956;2023-03-21T22:47:39;35.80;;;15.40;;
18695;SDS011;22617;43.690;27.956;2023-03-21T22:52:43;36.60;;;13.63;;
18695;SDS011;22617;43.690;27.956;2023-03-21T22:57:47;38.17;;;15.00;;
18695;SDS011;22617;43.690;27.956;2023-03-21T23:02:52;48.43;;;15.67;;
18695;SDS011;22617;43.690;27.956;2023-03-21T23:07:55;37.33;;;14.73;;
18695;SDS011;22617;43.690;27.956;2023-03-21T23:12:59;32.13;;;13.53;;
18695;SDS011;22617;43.690;27.956;2023-03-21T23:18:04;32.13;;;14.17;;
18695;SDS011;22617;43.690;27.956;2023-03-21T23:23:08;34.43;;;14.20;;
18695;SDS011;22617;43.690;27.956;2023-03-21T23:28:11;32.07;;;14.00;;
18695;SDS011;22617;43.690;27.956;2023-03-21T23:33:16;28.97;;;12.47;;
18695;SDS011;22617;43.690;27.956;2023-03-21T23:38:20;31.00;;;12.67;;
18695;SDS011;22617;43.690;27.956;2023-03-21T23:43:23;32.73;;;14.30;;
18695;SDS011;22617;43.690;27.956;2023-03-21T23:48:28;28.70;;;12.87;;
18695;SDS011;22617;43.690;27.956;2023-03-21T23:53:31;28.13;;;12.00;;
18695;SDS011;22617;43.690;27.956;2023-03-21T23:58:35;29.63;;;11.83;;
